createdAt,value
2017-12-27T00:01:24.628Z,2.07
2017-12-27T00:03:57.785Z,1.90
2017-12-27T00:06:30.938Z,2.30
2017-12-27T00:09:04.061Z,2.10
2017-12-27T00:11:37.274Z,2.10
2017-12-27T00:14:10.536Z,2.10
2017-12-27T00:16:44.522Z,2.43
2017-12-27T00:19:17.743Z,1.80
2017-12-27T00:21:51.740Z,2.37
2017-12-27T00:24:25.233Z,1.80
2017-12-27T00:26:58.247Z,2.30
2017-12-27T00:29:32.068Z,1.97
2017-12-27T00:31:59.121Z,2.10
2017-12-27T00:34:26.715Z,2.20
2017-12-27T00:36:54.309Z,2.07
2017-12-27T00:39:21.947Z,2.00
2017-12-27T00:41:49.517Z,2.83
2017-12-27T00:44:17.073Z,2.20
2017-12-27T00:46:44.707Z,2.27
2017-12-27T00:49:12.248Z,2.20
2017-12-27T00:51:39.849Z,2.13
2017-12-27T00:54:07.397Z,2.40
2017-12-27T00:56:35.046Z,2.37
2017-12-27T00:59:02.630Z,2.83
2017-12-27T01:01:30.889Z,2.07
2017-12-27T01:03:58.438Z,2.40
2017-12-27T01:06:26.027Z,1.63
2017-12-27T01:08:53.613Z,2.23
2017-12-27T01:11:21.206Z,1.97
2017-12-27T01:13:48.854Z,2.13
2017-12-27T01:16:17.234Z,2.20
2017-12-27T01:18:45.560Z,2.00
2017-12-27T01:21:13.154Z,2.10
2017-12-27T01:23:41.530Z,2.10
2017-12-27T01:26:09.097Z,2.17
2017-12-27T01:28:37.522Z,2.50
2017-12-27T01:31:05.123Z,1.90
2017-12-27T01:33:33.979Z,2.03
2017-12-27T01:36:01.522Z,2.80
2017-12-27T01:38:29.158Z,2.13
2017-12-27T01:40:56.799Z,2.63
2017-12-27T01:43:24.366Z,2.40
2017-12-27T01:45:53.341Z,2.37
2017-12-27T01:48:21.568Z,2.27
2017-12-27T01:50:49.146Z,2.60
2017-12-27T01:53:17.257Z,2.10
2017-12-27T01:55:45.061Z,2.00
2017-12-27T01:58:13.458Z,2.03
2017-12-27T02:00:41.126Z,3.00
2017-12-27T02:03:08.782Z,2.03
2017-12-27T02:05:36.364Z,1.73
2017-12-27T02:21:04.778Z,2.40
2017-12-27T02:23:32.386Z,2.13
2017-12-27T02:25:59.965Z,1.93
2017-12-27T02:28:27.570Z,2.50
2017-12-27T02:30:56.105Z,2.30
2017-12-27T02:33:24.185Z,2.23
2017-12-27T02:35:51.832Z,3.03
2017-12-27T02:38:33.160Z,2.30
2017-12-27T02:41:00.812Z,2.57
2017-12-27T02:43:28.389Z,2.43
2017-12-27T02:45:55.920Z,1.70
2017-12-27T02:48:23.533Z,2.00
2017-12-27T02:50:51.881Z,1.97
2017-12-27T02:53:19.449Z,2.40
2017-12-27T02:55:47.071Z,2.13
2017-12-27T02:58:14.669Z,2.00
2017-12-27T03:00:42.249Z,2.40
2017-12-27T03:03:10.564Z,2.10
2017-12-27T03:05:38.910Z,1.80
2017-12-27T03:08:07.865Z,1.67
2017-12-27T03:10:35.611Z,2.00
2017-12-27T03:13:03.163Z,1.83
2017-12-27T03:15:30.764Z,1.73
2017-12-27T03:17:58.356Z,1.60
2017-12-27T03:20:26.768Z,1.60
2017-12-27T03:22:54.353Z,1.90
2017-12-27T03:25:21.932Z,1.93
2017-12-27T03:27:49.598Z,1.77
2017-12-27T03:30:17.166Z,1.77
2017-12-27T03:32:44.809Z,1.90
2017-12-27T03:35:12.376Z,1.67
2017-12-27T03:37:39.960Z,1.67
2017-12-27T03:40:08.316Z,2.00
2017-12-27T03:42:35.888Z,2.00
2017-12-27T03:45:04.206Z,2.27
2017-12-27T03:47:31.804Z,1.60
2017-12-27T03:49:59.384Z,2.23
2017-12-27T03:52:27.003Z,1.60
2017-12-27T03:54:54.586Z,1.80
2017-12-27T03:57:22.125Z,2.03
2017-12-27T03:59:51.772Z,1.70
2017-12-27T04:02:19.940Z,1.97
2017-12-27T04:04:48.014Z,1.80
2017-12-27T04:07:16.177Z,1.87
2017-12-27T04:09:43.741Z,2.03
2017-12-27T04:12:11.314Z,2.00
2017-12-27T04:14:39.811Z,1.70
2017-12-27T04:17:07.428Z,1.77
2017-12-27T04:19:34.999Z,1.70
2017-12-27T04:22:02.548Z,1.50
2017-12-27T04:24:30.133Z,1.70
2017-12-27T04:26:57.888Z,1.73
2017-12-27T04:29:25.461Z,1.70
2017-12-27T04:31:53.032Z,1.50
2017-12-27T04:36:55.092Z,1.93
2017-12-27T04:39:23.886Z,1.50
2017-12-27T04:41:51.659Z,1.90
2017-12-27T04:44:19.954Z,1.57
2017-12-27T04:46:47.575Z,1.57
2017-12-27T04:49:15.143Z,1.40
2017-12-27T04:51:42.722Z,1.60
2017-12-27T04:54:10.292Z,2.20
2017-12-27T04:56:37.875Z,1.60
2017-12-27T04:59:06.195Z,1.80
2017-12-27T05:01:33.781Z,1.60
2017-12-27T05:04:01.329Z,1.63
2017-12-27T05:06:28.904Z,2.13
2017-12-27T05:08:56.491Z,2.00
2017-12-27T05:11:24.837Z,1.97
2017-12-27T05:13:52.381Z,1.47
2017-12-27T05:16:19.960Z,1.77
2017-12-27T05:18:47.570Z,1.60
2017-12-27T05:21:15.132Z,2.17
2017-12-27T05:23:42.704Z,1.90
2017-12-27T05:26:10.285Z,2.23
2017-12-27T05:28:37.883Z,1.90
2017-12-27T05:31:05.450Z,1.67
2017-12-27T05:33:33.013Z,1.53
2017-12-27T05:36:01.337Z,1.73
2017-12-27T05:38:28.926Z,1.60
2017-12-27T05:40:56.484Z,1.60
2017-12-27T05:43:24.427Z,1.90
2017-12-27T05:45:51.977Z,2.20
2017-12-27T05:48:19.571Z,1.80
2017-12-27T05:50:47.181Z,1.80
2017-12-27T05:53:16.248Z,2.00
2017-12-27T05:55:43.818Z,2.60
2017-12-27T05:58:12.162Z,1.90
2017-12-27T06:00:39.723Z,2.20
2017-12-27T06:03:07.358Z,2.00
2017-12-27T06:05:34.938Z,2.20
2017-12-27T06:08:02.481Z,2.07
2017-12-27T06:10:30.065Z,2.17
2017-12-27T06:12:57.656Z,2.37
2017-12-27T06:15:25.280Z,2.03
2017-12-27T06:17:53.130Z,2.43
2017-12-27T06:20:20.687Z,2.50
2017-12-27T06:22:48.258Z,2.53
2017-12-27T06:25:15.849Z,2.17
2017-12-27T06:27:43.446Z,2.13
2017-12-27T06:30:11.769Z,1.73
2017-12-27T06:32:39.329Z,2.40
2017-12-27T06:35:06.917Z,2.50
2017-12-27T06:37:34.485Z,1.93
2017-12-27T06:40:02.060Z,2.43
2017-12-27T06:42:30.375Z,2.60
2017-12-27T06:44:57.993Z,2.13
2017-12-27T06:47:25.606Z,2.57
2017-12-27T06:49:53.272Z,1.93
2017-12-27T06:52:20.852Z,2.10
2017-12-27T06:54:48.444Z,2.03
2017-12-27T06:57:15.992Z,2.27
2017-12-27T06:59:43.556Z,3.07
2017-12-27T07:02:11.144Z,2.30
2017-12-27T07:04:39.457Z,2.33
2017-12-27T07:07:07.042Z,2.17
2017-12-27T07:09:34.600Z,1.97
2017-12-27T07:12:02.162Z,1.90
2017-12-27T07:14:29.806Z,2.23
2017-12-27T07:16:57.374Z,2.00
2017-12-27T07:19:24.933Z,2.53
2017-12-27T07:21:52.561Z,2.40
2017-12-27T07:24:20.136Z,2.20
2017-12-27T07:26:47.697Z,2.70
2017-12-27T07:29:15.292Z,2.30
2017-12-27T07:31:42.862Z,2.30
2017-12-27T07:34:10.454Z,2.47
2017-12-27T07:36:38.788Z,2.00
2017-12-27T07:39:06.352Z,1.83
2017-12-27T07:41:33.916Z,1.73
2017-12-27T07:44:01.526Z,2.10
2017-12-27T07:46:29.085Z,2.03
2017-12-27T07:48:56.661Z,1.67
2017-12-27T07:51:24.201Z,1.97
2017-12-27T07:53:51.772Z,2.10
2017-12-27T07:56:19.392Z,1.70
2017-12-27T07:58:46.934Z,1.97
2017-12-27T08:01:14.502Z,1.70
2017-12-27T08:03:42.118Z,1.87
2017-12-27T08:06:10.438Z,2.20
2017-12-27T08:08:38.000Z,2.23
2017-12-27T08:11:05.606Z,2.00
2017-12-27T08:13:33.166Z,2.00
2017-12-27T08:16:00.734Z,1.80
2017-12-27T08:18:28.296Z,1.60
2017-12-27T08:20:55.892Z,2.10
2017-12-27T08:23:23.734Z,2.07
2017-12-27T08:25:51.372Z,2.20
2017-12-27T08:28:19.706Z,1.80
2017-12-27T08:30:47.270Z,1.90
2017-12-27T08:33:14.823Z,1.83
2017-12-27T08:35:42.442Z,2.20
2017-12-27T08:38:10.005Z,1.93
2017-12-27T08:40:37.596Z,1.80
2017-12-27T08:43:05.173Z,1.70
2017-12-27T08:45:32.758Z,2.03
2017-12-27T08:48:01.084Z,1.70
2017-12-27T08:50:28.645Z,2.00
2017-12-27T08:52:56.257Z,2.00
2017-12-27T08:55:24.609Z,2.00
2017-12-27T08:57:52.236Z,1.90
2017-12-27T09:00:19.942Z,1.70
2017-12-27T09:02:47.974Z,2.03
2017-12-27T09:05:15.558Z,1.73
2017-12-27T09:07:43.479Z,1.80
2017-12-27T09:10:11.970Z,1.70
2017-12-27T09:12:41.161Z,1.80
2017-12-27T09:15:10.052Z,1.80
2017-12-27T09:17:41.993Z,1.57
2017-12-27T09:20:09.664Z,1.40
2017-12-27T09:22:37.346Z,1.77
2017-12-27T09:25:05.769Z,1.90
2017-12-27T09:27:35.220Z,1.70
2017-12-27T09:30:02.845Z,1.40
2017-12-27T09:32:33.530Z,1.80
2017-12-27T09:35:01.207Z,1.40
2017-12-27T09:37:28.883Z,1.33
2017-12-27T09:39:56.573Z,1.53
2017-12-27T09:42:24.117Z,1.50
2017-12-27T09:44:51.696Z,1.40
2017-12-27T09:47:19.238Z,1.30
2017-12-27T09:49:46.983Z,1.30
2017-12-27T09:52:14.573Z,1.60
2017-12-27T09:54:42.144Z,1.23
2017-12-27T09:57:09.746Z,1.27
2017-12-27T09:59:37.305Z,1.30
2017-12-27T10:02:04.899Z,1.30
2017-12-27T10:04:32.448Z,1.20
2017-12-27T10:07:00.008Z,1.30
2017-12-27T10:09:27.610Z,1.60
2017-12-27T10:11:55.168Z,1.60
2017-12-27T10:14:22.745Z,1.20
2017-12-27T10:16:50.317Z,1.30
2017-12-27T10:19:18.687Z,1.97
2017-12-27T10:21:47.057Z,1.30
2017-12-27T10:24:14.652Z,1.50
2017-12-27T10:26:43.025Z,1.30
2017-12-27T10:29:11.351Z,1.20
2017-12-27T10:31:38.932Z,1.20
2017-12-27T10:34:06.485Z,1.20
2017-12-27T10:36:34.078Z,1.53
2017-12-27T10:39:02.398Z,1.50
2017-12-27T10:41:29.972Z,1.20
2017-12-27T10:43:57.542Z,1.30
2017-12-27T10:46:25.221Z,1.60
2017-12-27T10:48:52.777Z,1.57
2017-12-27T10:51:20.367Z,1.00
2017-12-27T10:53:48.897Z,1.50
2017-12-27T10:56:16.486Z,1.90
2017-12-27T10:58:44.058Z,1.80
2017-12-27T11:01:11.690Z,1.13
2017-12-27T11:03:39.259Z,1.50
2017-12-27T11:06:06.950Z,1.80
2017-12-27T11:08:35.277Z,1.47
2017-12-27T11:11:02.846Z,1.57
2017-12-27T11:13:31.865Z,1.80
2017-12-27T11:15:59.478Z,1.40
2017-12-27T11:18:27.073Z,1.57
2017-12-27T11:20:54.649Z,1.50
2017-12-27T11:23:22.249Z,1.97
2017-12-27T11:25:49.880Z,1.40
2017-12-27T11:28:17.493Z,1.40
2017-12-27T11:30:45.086Z,1.60
2017-12-27T11:33:12.677Z,2.00
2017-12-27T11:35:40.257Z,2.00
2017-12-27T11:38:07.834Z,1.57
2017-12-27T11:40:35.446Z,1.40
2017-12-27T11:43:03.013Z,1.40
2017-12-27T11:45:30.591Z,1.60
2017-12-27T11:47:58.898Z,1.50
2017-12-27T11:50:26.516Z,1.60
2017-12-27T11:52:54.082Z,1.60
2017-12-27T11:55:22.421Z,1.20
2017-12-27T11:57:50.007Z,1.43
2017-12-27T12:00:17.570Z,1.40
2017-12-27T12:02:45.166Z,1.50
2017-12-27T12:05:12.734Z,1.70
2017-12-27T12:07:40.323Z,1.73
2017-12-27T12:10:07.877Z,1.33
2017-12-27T12:12:35.459Z,1.27
2017-12-27T12:15:03.031Z,1.33
2017-12-27T12:17:30.634Z,1.40
2017-12-27T12:19:58.226Z,5.70
2017-12-27T12:22:25.858Z,2.07
2017-12-27T12:24:54.179Z,2.20
2017-12-27T12:27:21.753Z,1.90
2017-12-27T12:29:49.345Z,4.03
2017-12-27T12:32:17.689Z,2.57
2017-12-27T12:34:45.287Z,1.77
2017-12-27T12:37:13.597Z,1.90
2017-12-27T12:39:41.217Z,1.93
2017-12-27T12:42:09.578Z,2.20
2017-12-27T12:44:37.173Z,2.63
2017-12-27T12:47:05.516Z,2.50
2017-12-27T12:49:33.127Z,2.87
2017-12-27T12:52:00.732Z,3.00
2017-12-27T12:54:29.107Z,2.10
2017-12-27T12:56:56.692Z,2.20
2017-12-27T12:59:24.282Z,1.70
2017-12-27T13:01:53.432Z,2.00
2017-12-27T13:04:21.038Z,1.40
2017-12-27T13:06:48.653Z,1.60
2017-12-27T13:09:16.214Z,1.80
2017-12-27T13:11:43.875Z,1.80
2017-12-27T13:14:11.441Z,1.60
2017-12-27T13:16:39.035Z,1.77
2017-12-27T13:19:07.378Z,1.70
2017-12-27T13:21:34.928Z,1.60
2017-12-27T13:24:02.508Z,1.63
2017-12-27T13:26:30.091Z,2.00
2017-12-27T13:28:58.426Z,1.70
2017-12-27T13:31:26.024Z,1.50
2017-12-27T13:33:54.358Z,1.20
2017-12-27T13:36:21.977Z,1.60
2017-12-27T13:38:50.300Z,1.90
2017-12-27T13:41:17.914Z,1.37
2017-12-27T13:43:46.268Z,1.40
2017-12-27T13:46:13.838Z,1.40
2017-12-27T13:48:41.497Z,1.20
2017-12-27T13:51:09.053Z,1.50
2017-12-27T13:53:36.641Z,1.60
2017-12-27T13:56:04.986Z,1.53
2017-12-27T13:58:32.681Z,1.50
2017-12-27T14:01:01.014Z,1.67
2017-12-27T14:03:28.593Z,1.90
2017-12-27T14:06:02.373Z,1.50
2017-12-27T14:08:29.974Z,1.40
2017-12-27T14:10:58.348Z,1.63
2017-12-27T14:13:26.058Z,1.70
2017-12-27T14:15:53.662Z,1.90
2017-12-27T14:18:21.227Z,1.37
2017-12-27T14:20:48.882Z,2.07
2017-12-27T14:23:16.434Z,1.80
2017-12-27T14:25:44.021Z,2.07
2017-12-27T14:28:11.585Z,1.80
2017-12-27T14:30:39.201Z,1.60
2017-12-27T14:33:06.766Z,1.30
2017-12-27T14:35:34.337Z,1.77
2017-12-27T14:38:01.950Z,1.60
2017-12-27T14:40:30.288Z,1.43
2017-12-27T14:42:57.945Z,1.57
2017-12-27T14:45:25.539Z,1.50
2017-12-27T14:47:53.893Z,1.57
2017-12-27T14:50:21.474Z,1.60
2017-12-27T14:52:49.107Z,1.90
2017-12-27T14:55:16.710Z,1.80
2017-12-27T14:57:45.078Z,1.90
2017-12-27T15:00:13.398Z,1.63
2017-12-27T15:02:41.009Z,2.00
2017-12-27T15:05:08.581Z,1.80
2017-12-27T15:07:36.130Z,1.70
2017-12-27T15:10:03.712Z,1.93
2017-12-27T15:12:32.116Z,1.97
2017-12-27T15:14:59.729Z,2.23
2017-12-27T15:17:27.414Z,2.40
2017-12-27T15:19:55.785Z,2.20
2017-12-27T15:22:23.336Z,2.20
2017-12-27T15:24:50.917Z,2.17
2017-12-27T15:27:19.312Z,1.60
2017-12-27T15:29:46.920Z,2.37
2017-12-27T15:32:14.495Z,1.90
2017-12-27T15:34:42.086Z,2.10
2017-12-27T15:37:10.496Z,2.03
2017-12-27T15:39:38.099Z,1.77
2017-12-27T15:42:06.488Z,1.93
2017-12-27T15:44:34.109Z,1.97
2017-12-27T15:47:01.712Z,2.17
2017-12-27T15:49:29.322Z,2.10
2017-12-27T15:51:56.952Z,2.27
2017-12-27T15:54:24.691Z,2.23
2017-12-27T15:56:52.329Z,2.00
2017-12-27T15:59:19.962Z,2.13
2017-12-27T16:01:47.531Z,2.30
2017-12-27T16:04:15.156Z,2.43
2017-12-27T16:06:43.538Z,2.33
2017-12-27T16:09:11.894Z,2.63
2017-12-27T16:11:39.489Z,2.73
2017-12-27T16:14:07.858Z,18.83
2017-12-27T16:16:36.211Z,16.80
2017-12-27T16:19:03.811Z,9.33
2017-12-27T16:21:31.453Z,6.90
2017-12-27T16:23:59.040Z,6.30
2017-12-27T16:26:26.633Z,7.67
2017-12-27T16:28:54.210Z,9.07
2017-12-27T16:31:21.791Z,8.40
2017-12-27T16:33:50.633Z,6.80
2017-12-27T16:36:18.205Z,5.57
2017-12-27T16:38:45.787Z,5.10
2017-12-27T16:41:13.374Z,3.20
2017-12-27T16:43:40.989Z,3.00
2017-12-27T16:46:08.589Z,3.33
2017-12-27T16:48:36.262Z,2.80
2017-12-27T16:51:04.650Z,2.93
2017-12-27T16:53:33.006Z,3.20
2017-12-27T16:56:00.581Z,3.10
2017-12-27T16:58:28.957Z,3.33
2017-12-27T17:00:57.321Z,3.40
2017-12-27T17:03:24.917Z,2.77
2017-12-27T17:05:53.247Z,3.10
2017-12-27T17:08:20.833Z,3.63
2017-12-27T17:10:48.472Z,3.43
2017-12-27T17:13:16.068Z,3.00
2017-12-27T17:15:44.404Z,3.63
2017-12-27T17:18:12.112Z,3.40
2017-12-27T17:20:40.499Z,2.97
2017-12-27T17:23:08.857Z,2.97
2017-12-27T17:25:37.203Z,3.70
2017-12-27T17:28:04.938Z,3.47
2017-12-27T17:30:32.526Z,3.50
2017-12-27T17:33:00.124Z,3.60
2017-12-27T17:35:27.681Z,3.23
2017-12-27T17:37:55.331Z,3.40
2017-12-27T17:40:22.946Z,3.27
2017-12-27T17:42:50.596Z,3.33
2017-12-27T17:45:18.186Z,3.10
2017-12-27T17:47:45.789Z,3.70
2017-12-27T17:50:13.377Z,4.27
2017-12-27T17:52:41.716Z,5.77
2017-12-27T17:55:09.360Z,7.20
2017-12-27T17:57:36.957Z,6.70
2017-12-27T18:00:04.564Z,5.37
2017-12-27T18:02:32.162Z,5.10
2017-12-27T18:04:59.768Z,4.30
2017-12-27T18:07:28.014Z,3.87
2017-12-27T18:09:55.609Z,3.20
2017-12-27T18:12:23.988Z,5.33
2017-12-27T18:14:51.552Z,4.93
2017-12-27T18:17:19.114Z,6.57
2017-12-27T18:19:46.705Z,6.13
2017-12-27T18:22:15.085Z,4.50
2017-12-27T18:24:43.437Z,4.50
2017-12-27T18:27:11.003Z,4.53
2017-12-27T18:29:38.612Z,6.37
2017-12-27T18:32:06.161Z,6.93
2017-12-27T18:34:33.761Z,5.53
2017-12-27T18:37:02.110Z,5.07
2017-12-27T18:39:29.751Z,4.67
2017-12-27T18:41:57.325Z,4.60
2017-12-27T18:44:24.961Z,4.47
2017-12-27T18:46:52.542Z,4.27
2017-12-27T18:49:20.065Z,4.40
2017-12-27T18:51:47.678Z,5.30
2017-12-27T18:54:15.544Z,5.17
2017-12-27T18:56:43.153Z,5.73
2017-12-27T18:59:10.747Z,5.00
2017-12-27T19:01:38.373Z,5.50
2017-12-27T19:04:05.956Z,5.77
2017-12-27T19:06:33.667Z,4.67
2017-12-27T19:09:02.032Z,4.90
2017-12-27T19:11:29.597Z,5.20
2017-12-27T19:13:57.175Z,4.70
2017-12-27T19:16:25.633Z,5.20
2017-12-27T19:18:53.220Z,4.30
2017-12-27T19:21:21.594Z,5.97
2017-12-27T19:23:49.227Z,4.10
2017-12-27T19:26:16.839Z,5.10
2017-12-27T19:28:45.180Z,4.00
2017-12-27T19:31:12.767Z,4.10
2017-12-27T19:33:41.118Z,4.67
2017-12-27T19:36:08.666Z,4.40
2017-12-27T19:38:36.426Z,4.93
2017-12-27T19:41:04.025Z,4.57
2017-12-27T19:43:31.724Z,4.53
2017-12-27T19:45:59.375Z,4.70
2017-12-27T19:48:27.038Z,4.17
2017-12-27T19:50:54.664Z,5.47
2017-12-27T19:53:22.414Z,4.73
2017-12-27T19:55:50.040Z,4.50
2017-12-27T19:58:17.667Z,4.07
2017-12-27T20:00:46.003Z,4.77
2017-12-27T20:03:13.813Z,4.33
2017-12-27T20:05:42.238Z,4.30
2017-12-27T20:08:09.822Z,4.30
2017-12-27T20:10:37.403Z,4.63
2017-12-27T20:13:04.980Z,4.30
2017-12-27T20:15:32.730Z,5.20
2017-12-27T20:18:00.440Z,4.63
2017-12-27T20:20:28.166Z,5.63
2017-12-27T20:22:55.774Z,5.97
2017-12-27T20:25:23.417Z,5.00
2017-12-27T20:27:50.997Z,5.73
2017-12-27T20:30:18.616Z,6.10
2017-12-27T20:32:46.986Z,5.90
2017-12-27T20:35:14.685Z,6.57
2017-12-27T20:37:42.321Z,8.70
2017-12-27T20:40:10.706Z,6.93
2017-12-27T20:42:39.115Z,8.30
2017-12-27T20:45:06.865Z,8.03
2017-12-27T20:50:09.123Z,5.60
2017-12-27T20:52:36.792Z,6.90
2017-12-27T20:55:05.801Z,6.00
2017-12-27T20:57:34.248Z,5.40
2017-12-27T21:00:01.904Z,5.97
2017-12-27T21:02:29.499Z,6.33
2017-12-27T21:04:57.059Z,5.90
2017-12-27T21:07:25.410Z,7.60
2017-12-27T21:09:53.190Z,7.20
2017-12-27T21:12:20.819Z,7.87
2017-12-27T21:14:48.552Z,8.20
2017-12-27T21:17:16.933Z,8.30
2017-12-27T21:19:45.285Z,8.40
2017-12-27T21:22:12.870Z,7.70
2017-12-27T21:24:40.511Z,6.40
2017-12-27T21:27:11.107Z,6.07
2017-12-27T21:29:38.709Z,7.77
2017-12-27T21:32:07.081Z,8.07
2017-12-27T21:34:34.684Z,8.10
2017-12-27T21:37:02.279Z,5.80
2017-12-27T21:39:29.981Z,6.13
2017-12-27T21:41:57.680Z,7.20
2017-12-27T21:44:25.248Z,6.50
2017-12-27T21:46:52.866Z,7.70
2017-12-27T21:49:26.945Z,12.23
2017-12-27T21:51:54.558Z,10.53
2017-12-27T21:54:22.257Z,7.80
2017-12-27T21:56:49.844Z,7.33
2017-12-27T21:59:22.917Z,6.70
2017-12-27T22:01:50.531Z,6.10
2017-12-27T22:04:18.775Z,6.43
2017-12-27T22:06:46.405Z,5.80
2017-12-27T22:09:14.047Z,5.70
2017-12-27T22:11:41.663Z,5.87
2017-12-27T22:14:09.353Z,5.40
2017-12-27T22:16:38.038Z,4.70
2017-12-27T22:19:06.438Z,4.50
2017-12-27T22:21:34.007Z,4.33
2017-12-27T22:24:01.624Z,4.23
2017-12-27T22:26:29.236Z,4.83
2017-12-27T22:28:57.416Z,4.37
2017-12-27T22:31:25.022Z,4.53
2017-12-27T22:33:53.377Z,4.13
2017-12-27T22:36:20.953Z,3.80
2017-12-27T22:38:48.586Z,4.83
2017-12-27T22:41:16.178Z,4.87
2017-12-27T22:43:43.853Z,4.40
2017-12-27T22:46:12.264Z,5.00
2017-12-27T22:48:39.842Z,5.83
2017-12-27T22:51:07.448Z,5.63
2017-12-27T22:53:35.030Z,5.90
2017-12-27T22:56:03.360Z,5.40
2017-12-27T22:58:31.081Z,6.00
2017-12-27T23:00:58.669Z,5.97
2017-12-27T23:03:26.248Z,5.93
2017-12-27T23:05:53.824Z,5.93
2017-12-27T23:08:21.417Z,5.70
2017-12-27T23:10:49.751Z,6.77
2017-12-27T23:13:17.358Z,6.40
2017-12-27T23:15:44.971Z,7.47
2017-12-27T23:18:12.542Z,9.30
2017-12-27T23:20:40.134Z,9.73
2017-12-27T23:23:07.733Z,13.73
2017-12-27T23:25:35.353Z,13.20
2017-12-27T23:28:03.720Z,14.97
2017-12-27T23:30:31.303Z,14.87
2017-12-27T23:32:59.687Z,15.70
2017-12-27T23:35:28.029Z,15.40
2017-12-27T23:37:55.598Z,15.40
2017-12-27T23:40:24.086Z,14.50
2017-12-27T23:42:52.524Z,15.37
2017-12-27T23:45:20.115Z,14.30
2017-12-27T23:47:47.677Z,12.30
2017-12-27T23:50:16.620Z,8.53
2017-12-27T23:52:44.180Z,6.67
2017-12-27T23:55:11.750Z,5.03
2017-12-27T23:57:39.350Z,5.47
